Absarokee, MT

7:19 AM MST on December 19, 2014 (GMT -0700)
North Davidson Ave., Absarokee | Change Station
CLOSE
Current Station
Personal Weather Station
Location: Absarokee, MT
Elevation: 4042 ft
Nearby Weather Stations

Elev 4042 ft 45.52 °N, 109.44 °W | Updated 13 seconds ago

Partly Cloudy
Partly Cloudy
24.5 °F
Feels Like 24 °F
N
0.4
Wind Variable Wind from NW
Gusts 1.1 mph

Today
High -- | Low -- °F
--% Chance of Precip.
Yesterday
High -- | Low -- °F
Precip. -- in
7:53 AM 4:36 PM
Waning Crescent, 8% visible
Pressure 30.03 in
Visibility 10.0 miles
Clouds Few 9000 ft
Windchill 24 °F
Dew Point 18 °F
Humidity 77%
Rainfall 0.00 in
Snow Depth Not available.
UV 0 out of 12
Pollen .10 out of 12
Air Quality Not available.
Flu Activity Not available.
METAR KBIL 191353Z 23015KT 10SM FEW090 M01/M08 A2994 RMK AO2 SLP167 T10111083

More Conditions Fewer Conditions

Pressure 30.03 in
Visibility 10.0 miles
Clouds Few 9000 ft
Windchill 24 °F
Dew Point 18 °F
Humidity 77%
Rainfall 0.00 in
Snow Depth Not available.
UV 0 out of 12
Pollen .10 out of 12
Air Quality Not available.
Flu Activity Not available.
METAR KBIL 191353Z 23015KT 10SM FEW090 M01/M08 A2994 RMK AO2 SLP167 T10111083

More Conditions Fewer Conditions

10-Day Weather Forecast

Almanac

Astronomy

Dec. 19, 2014 Rise Set
Actual Time
Civil Twilight
Nautical Twilight
Astronomical Twilight
Moon
Length of Visible Light
Length of Day
Tomorrow will be .
, % of the Moon is Illuminated

Today's Extremes

State Highs State Lows

Community

WunderPhotos

Upload Photos

1,778,987 photos uploaded!

WunderBlogs® & News

Nearby

Air Quality

  Air Quality AQ Index Pollutant
Not available.

Snow Depth

Station Depth Elevation

Earthquake Activity

City Distance Mag. Time & Date
Minimum magnitude displayed is 2.5.

Coastal Water Temperatures

Place Temperature

Nearby Weather Stations